sensor_id;sensor_type;location;lat;lon;timestamp;P1;durP1;ratioP1;P2;durP2;ratioP2
20421;SDS011;10370;53.102;18.034;2023-06-22T00:01:03;35.97;;;25.35;;
20421;SDS011;10370;53.102;18.034;2023-06-22T00:06:26;35.70;;;25.70;;
20421;SDS011;10370;53.102;18.034;2023-06-22T00:11:49;32.10;;;24.42;;
20421;SDS011;10370;53.102;18.034;2023-06-22T00:17:12;36.08;;;24.92;;
20421;SDS011;10370;53.102;18.034;2023-06-22T00:22:35;34.13;;;23.30;;
20421;SDS011;10370;53.102;18.034;2023-06-22T00:28:00;33.05;;;23.58;;
20421;SDS011;10370;53.102;18.034;2023-06-22T00:33:24;33.78;;;24.52;;
20421;SDS011;10370;53.102;18.034;2023-06-22T00:38:47;32.33;;;24.52;;
20421;SDS011;10370;53.102;18.034;2023-06-22T00:44:12;32.67;;;25.52;;
20421;SDS011;10370;53.102;18.034;2023-06-22T00:49:35;29.15;;;22.30;;
20421;SDS011;10370;53.102;18.034;2023-06-22T00:54:57;32.50;;;23.95;;
20421;SDS011;10370;53.102;18.034;2023-06-22T01:00:24;28.38;;;19.88;;
20421;SDS011;10370;53.102;18.034;2023-06-22T01:05:47;25.30;;;17.10;;
20421;SDS011;10370;53.102;18.034;2023-06-22T01:16:43;19.92;;;13.15;;
20421;SDS011;10370;53.102;18.034;2023-06-22T01:22:07;17.80;;;12.85;;
20421;SDS011;10370;53.102;18.034;2023-06-22T01:27:52;17.55;;;12.70;;
20421;SDS011;10370;53.102;18.034;2023-06-22T01:33:23;16.15;;;12.25;;
20421;SDS011;10370;53.102;18.034;2023-06-22T01:38:45;20.58;;;12.63;;
20421;SDS011;10370;53.102;18.034;2023-06-22T01:44:09;19.73;;;14.05;;
20421;SDS011;10370;53.102;18.034;2023-06-22T01:49:34;20.38;;;13.90;;
20421;SDS011;10370;53.102;18.034;2023-06-22T01:54:56;20.13;;;15.35;;
20421;SDS011;10370;53.102;18.034;2023-06-22T02:00:20;22.88;;;16.98;;
20421;SDS011;10370;53.102;18.034;2023-06-22T02:05:49;25.85;;;18.17;;
20421;SDS011;10370;53.102;18.034;2023-06-22T02:11:25;32.00;;;19.88;;
20421;SDS011;10370;53.102;18.034;2023-06-22T02:16:50;27.85;;;19.63;;
20421;SDS011;10370;53.102;18.034;2023-06-22T02:22:13;28.23;;;20.92;;
20421;SDS011;10370;53.102;18.034;2023-06-22T02:27:36;26.55;;;19.95;;
20421;SDS011;10370;53.102;18.034;2023-06-22T02:33:02;21.13;;;16.25;;
20421;SDS011;10370;53.102;18.034;2023-06-22T02:38:25;20.30;;;13.75;;
20421;SDS011;10370;53.102;18.034;2023-06-22T02:43:48;17.73;;;12.52;;
20421;SDS011;10370;53.102;18.034;2023-06-22T02:49:11;15.68;;;11.25;;
20421;SDS011;10370;53.102;18.034;2023-06-22T02:54:34;15.73;;;11.57;;
20421;SDS011;10370;53.102;18.034;2023-06-22T02:59:56;19.48;;;11.40;;
20421;SDS011;10370;53.102;18.034;2023-06-22T03:05:19;14.95;;;10.82;;
20421;SDS011;10370;53.102;18.034;2023-06-22T03:10:42;21.35;;;12.93;;
20421;SDS011;10370;53.102;18.034;2023-06-22T03:16:05;17.45;;;12.05;;
20421;SDS011;10370;53.102;18.034;2023-06-22T03:21:28;15.35;;;11.20;;
20421;SDS011;10370;53.102;18.034;2023-06-22T03:26:51;15.45;;;10.88;;
20421;SDS011;10370;53.102;18.034;2023-06-22T03:32:13;16.88;;;10.50;;
20421;SDS011;10370;53.102;18.034;2023-06-22T03:37:36;18.17;;;10.50;;
20421;SDS011;10370;53.102;18.034;2023-06-22T03:42:58;16.08;;;9.98;;
20421;SDS011;10370;53.102;18.034;2023-06-22T03:48:21;12.18;;;9.77;;
20421;SDS011;10370;53.102;18.034;2023-06-22T03:53:44;14.95;;;9.85;;
20421;SDS011;10370;53.102;18.034;2023-06-22T03:59:06;13.13;;;9.15;;
20421;SDS011;10370;53.102;18.034;2023-06-22T04:04:29;15.65;;;9.65;;
20421;SDS011;10370;53.102;18.034;2023-06-22T04:09:52;15.10;;;9.18;;
20421;SDS011;10370;53.102;18.034;2023-06-22T04:15:15;14.10;;;10.13;;
20421;SDS011;10370;53.102;18.034;2023-06-22T04:20:38;16.15;;;10.27;;
20421;SDS011;10370;53.102;18.034;2023-06-22T04:26:01;16.10;;;9.80;;
20421;SDS011;10370;53.102;18.034;2023-06-22T04:31:24;16.70;;;10.27;;
20421;SDS011;10370;53.102;18.034;2023-06-22T04:36:53;14.55;;;10.38;;
20421;SDS011;10370;53.102;18.034;2023-06-22T04:42:16;12.73;;;9.65;;
20421;SDS011;10370;53.102;18.034;2023-06-22T04:47:39;13.10;;;8.95;;
20421;SDS011;10370;53.102;18.034;2023-06-22T04:53:02;13.75;;;9.05;;
20421;SDS011;10370;53.102;18.034;2023-06-22T04:58:27;13.10;;;8.07;;
20421;SDS011;10370;53.102;18.034;2023-06-22T05:03:50;11.38;;;7.30;;
20421;SDS011;10370;53.102;18.034;2023-06-22T05:09:17;11.48;;;6.15;;
20421;SDS011;10370;53.102;18.034;2023-06-22T05:14:40;13.02;;;5.80;;
20421;SDS011;10370;53.102;18.034;2023-06-22T05:20:03;12.40;;;5.72;;
20421;SDS011;10370;53.102;18.034;2023-06-22T05:25:28;9.07;;;5.63;;
20421;SDS011;10370;53.102;18.034;2023-06-22T05:30:54;7.45;;;5.13;;
20421;SDS011;10370;53.102;18.034;2023-06-22T05:36:17;6.40;;;5.07;;
20421;SDS011;10370;53.102;18.034;2023-06-22T05:41:42;6.70;;;4.70;;
20421;SDS011;10370;53.102;18.034;2023-06-22T05:47:11;8.55;;;4.70;;
20421;SDS011;10370;53.102;18.034;2023-06-22T05:52:57;8.48;;;4.88;;
20421;SDS011;10370;53.102;18.034;2023-06-22T05:58:20;7.07;;;4.07;;
20421;SDS011;10370;53.102;18.034;2023-06-22T06:03:47;7.18;;;4.13;;
20421;SDS011;10370;53.102;18.034;2023-06-22T06:09:33;5.97;;;4.30;;
20421;SDS011;10370;53.102;18.034;2023-06-22T06:14:56;7.20;;;4.40;;
20421;SDS011;10370;53.102;18.034;2023-06-22T06:20:23;8.75;;;4.97;;
20421;SDS011;10370;53.102;18.034;2023-06-22T06:25:47;10.52;;;5.10;;
20421;SDS011;10370;53.102;18.034;2023-06-22T06:31:10;14.23;;;5.05;;
20421;SDS011;10370;53.102;18.034;2023-06-22T06:36:39;7.30;;;4.88;;
20421;SDS011;10370;53.102;18.034;2023-06-22T06:42:01;7.57;;;4.38;;
20421;SDS011;10370;53.102;18.034;2023-06-22T06:47:24;8.88;;;4.43;;
20421;SDS011;10370;53.102;18.034;2023-06-22T06:52:47;8.57;;;4.70;;
20421;SDS011;10370;53.102;18.034;2023-06-22T06:58:11;7.07;;;3.55;;
20421;SDS011;10370;53.102;18.034;2023-06-22T07:03:35;7.13;;;3.58;;
20421;SDS011;10370;53.102;18.034;2023-06-22T07:08:57;5.65;;;3.72;;
20421;SDS011;10370;53.102;18.034;2023-06-22T07:14:20;5.22;;;3.60;;
20421;SDS011;10370;53.102;18.034;2023-06-22T07:19:42;4.50;;;3.33;;
20421;SDS011;10370;53.102;18.034;2023-06-22T07:25:05;5.18;;;3.60;;
20421;SDS011;10370;53.102;18.034;2023-06-22T07:30:32;8.77;;;3.95;;
20421;SDS011;10370;53.102;18.034;2023-06-22T07:35:56;7.28;;;3.47;;
20421;SDS011;10370;53.102;18.034;2023-06-22T07:41:18;4.70;;;3.50;;
20421;SDS011;10370;53.102;18.034;2023-06-22T07:46:41;6.65;;;3.60;;
20421;SDS011;10370;53.102;18.034;2023-06-22T07:52:04;10.07;;;4.07;;
20421;SDS011;10370;53.102;18.034;2023-06-22T07:57:28;4.25;;;3.60;;
20421;SDS011;10370;53.102;18.034;2023-06-22T08:02:55;7.00;;;3.63;;
20421;SDS011;10370;53.102;18.034;2023-06-22T08:08:18;6.95;;;3.70;;
20421;SDS011;10370;53.102;18.034;2023-06-22T08:13:41;7.85;;;3.63;;
20421;SDS011;10370;53.102;18.034;2023-06-22T08:19:04;5.72;;;3.83;;
20421;SDS011;10370;53.102;18.034;2023-06-22T08:24:27;6.43;;;4.10;;
20421;SDS011;10370;53.102;18.034;2023-06-22T08:29:52;6.22;;;3.80;;
20421;SDS011;10370;53.102;18.034;2023-06-22T08:35:19;4.78;;;3.90;;
20421;SDS011;10370;53.102;18.034;2023-06-22T08:40:44;7.13;;;4.00;;
20421;SDS011;10370;53.102;18.034;2023-06-22T08:46:06;6.30;;;3.90;;
20421;SDS011;10370;53.102;18.034;2023-06-22T08:51:29;3.85;;;3.20;;
20421;SDS011;10370;53.102;18.034;2023-06-22T08:56:51;5.28;;;3.70;;
20421;SDS011;10370;53.102;18.034;2023-06-22T09:02:14;6.53;;;3.97;;
20421;SDS011;10370;53.102;18.034;2023-06-22T09:07:37;6.60;;;3.55;;
20421;SDS011;10370;53.102;18.034;2023-06-22T09:13:00;6.47;;;3.38;;
20421;SDS011;10370;53.102;18.034;2023-06-22T09:18:22;7.00;;;4.20;;
20421;SDS011;10370;53.102;18.034;2023-06-22T09:23:45;5.00;;;3.50;;
20421;SDS011;10370;53.102;18.034;2023-06-22T09:29:12;5.85;;;3.42;;
20421;SDS011;10370;53.102;18.034;2023-06-22T09:34:34;5.43;;;3.30;;
20421;SDS011;10370;53.102;18.034;2023-06-22T09:39:57;7.53;;;3.72;;
20421;SDS011;10370;53.102;18.034;2023-06-22T09:45:20;4.70;;;3.10;;
20421;SDS011;10370;53.102;18.034;2023-06-22T09:50:42;8.82;;;3.70;;
20421;SDS011;10370;53.102;18.034;2023-06-22T09:56:05;4.97;;;3.22;;
20421;SDS011;10370;53.102;18.034;2023-06-22T10:01:29;7.10;;;3.00;;
20421;SDS011;10370;53.102;18.034;2023-06-22T10:06:52;5.80;;;3.10;;
20421;SDS011;10370;53.102;18.034;2023-06-22T10:12:15;4.72;;;2.53;;
20421;SDS011;10370;53.102;18.034;2023-06-22T10:17:38;6.20;;;2.60;;
20421;SDS011;10370;53.102;18.034;2023-06-22T10:23:00;5.85;;;3.22;;
20421;SDS011;10370;53.102;18.034;2023-06-22T10:28:23;8.65;;;2.90;;
20421;SDS011;10370;53.102;18.034;2023-06-22T10:33:46;4.30;;;2.78;;
20421;SDS011;10370;53.102;18.034;2023-06-22T10:39:11;6.60;;;2.72;;
20421;SDS011;10370;53.102;18.034;2023-06-22T10:44:34;6.32;;;2.90;;
20421;SDS011;10370;53.102;18.034;2023-06-22T10:49:56;5.25;;;2.63;;
20421;SDS011;10370;53.102;18.034;2023-06-22T10:55:19;4.47;;;2.90;;
20421;SDS011;10370;53.102;18.034;2023-06-22T11:00:42;5.03;;;2.53;;
20421;SDS011;10370;53.102;18.034;2023-06-22T11:06:04;4.40;;;2.78;;
20421;SDS011;10370;53.102;18.034;2023-06-22T11:11:27;4.20;;;2.67;;
20421;SDS011;10370;53.102;18.034;2023-06-22T11:16:50;6.05;;;2.83;;
20421;SDS011;10370;53.102;18.034;2023-06-22T11:22:13;3.78;;;2.67;;
20421;SDS011;10370;53.102;18.034;2023-06-22T11:27:36;5.68;;;2.72;;
20421;SDS011;10370;53.102;18.034;2023-06-22T11:32:58;4.35;;;2.50;;
20421;SDS011;10370;53.102;18.034;2023-06-22T11:38:21;3.53;;;2.47;;
20421;SDS011;10370;53.102;18.034;2023-06-22T11:43:44;3.60;;;2.63;;
20421;SDS011;10370;53.102;18.034;2023-06-22T11:49:07;2.55;;;2.20;;
20421;SDS011;10370;53.102;18.034;2023-06-22T11:54:30;4.35;;;3.00;;
20421;SDS011;10370;53.102;18.034;2023-06-22T11:59:53;3.15;;;2.55;;
20421;SDS011;10370;53.102;18.034;2023-06-22T12:05:15;4.07;;;2.90;;
20421;SDS011;10370;53.102;18.034;2023-06-22T12:10:38;4.95;;;2.70;;
20421;SDS011;10370;53.102;18.034;2023-06-22T12:16:01;5.90;;;2.80;;
20421;SDS011;10370;53.102;18.034;2023-06-22T12:21:24;3.85;;;2.90;;
20421;SDS011;10370;53.102;18.034;2023-06-22T12:26:47;6.90;;;3.10;;
20421;SDS011;10370;53.102;18.034;2023-06-22T12:32:10;3.85;;;2.97;;
20421;SDS011;10370;53.102;18.034;2023-06-22T12:37:34;5.82;;;2.72;;
20421;SDS011;10370;53.102;18.034;2023-06-22T12:42:57;6.20;;;2.53;;
20421;SDS011;10370;53.102;18.034;2023-06-22T12:48:21;4.72;;;2.80;;
20421;SDS011;10370;53.102;18.034;2023-06-22T12:53:44;4.65;;;3.00;;
20421;SDS011;10370;53.102;18.034;2023-06-22T12:59:07;5.82;;;3.00;;
20421;SDS011;10370;53.102;18.034;2023-06-22T13:04:29;6.63;;;3.00;;
20421;SDS011;10370;53.102;18.034;2023-06-22T13:09:52;5.00;;;2.92;;
20421;SDS011;10370;53.102;18.034;2023-06-22T13:15:15;4.07;;;2.88;;
20421;SDS011;10370;53.102;18.034;2023-06-22T13:20:37;3.53;;;2.78;;
20421;SDS011;10370;53.102;18.034;2023-06-22T13:26:00;5.95;;;2.72;;
20421;SDS011;10370;53.102;18.034;2023-06-22T13:31:23;3.60;;;2.72;;
20421;SDS011;10370;53.102;18.034;2023-06-22T13:36:46;5.07;;;2.60;;
20421;SDS011;10370;53.102;18.034;2023-06-22T13:42:08;4.32;;;2.50;;
20421;SDS011;10370;53.102;18.034;2023-06-22T13:47:31;4.88;;;2.72;;
20421;SDS011;10370;53.102;18.034;2023-06-22T13:52:54;3.22;;;2.60;;
20421;SDS011;10370;53.102;18.034;2023-06-22T13:58:17;7.10;;;3.03;;
20421;SDS011;10370;53.102;18.034;2023-06-22T14:03:41;3.92;;;2.88;;
20421;SDS011;10370;53.102;18.034;2023-06-22T14:09:07;6.55;;;2.80;;
20421;SDS011;10370;53.102;18.034;2023-06-22T14:14:30;4.05;;;3.00;;
20421;SDS011;10370;53.102;18.034;2023-06-22T14:19:53;4.90;;;3.08;;
20421;SDS011;10370;53.102;18.034;2023-06-22T14:25:17;4.45;;;2.80;;
20421;SDS011;10370;53.102;18.034;2023-06-22T14:30:39;6.50;;;2.70;;
20421;SDS011;10370;53.102;18.034;2023-06-22T14:36:02;4.38;;;3.05;;
20421;SDS011;10370;53.102;18.034;2023-06-22T14:41:25;7.60;;;2.97;;
20421;SDS011;10370;53.102;18.034;2023-06-22T14:46:48;5.82;;;3.13;;
20421;SDS011;10370;53.102;18.034;2023-06-22T14:52:10;4.38;;;3.22;;
20421;SDS011;10370;53.102;18.034;2023-06-22T14:57:33;4.00;;;2.85;;
20421;SDS011;10370;53.102;18.034;2023-06-22T15:02:56;4.53;;;2.75;;
20421;SDS011;10370;53.102;18.034;2023-06-22T15:08:19;2.88;;;2.17;;
20421;SDS011;10370;53.102;18.034;2023-06-22T15:13:42;7.88;;;2.50;;
20421;SDS011;10370;53.102;18.034;2023-06-22T15:19:05;5.35;;;3.03;;
20421;SDS011;10370;53.102;18.034;2023-06-22T15:24:27;4.53;;;2.90;;
20421;SDS011;10370;53.102;18.034;2023-06-22T15:29:50;6.03;;;2.85;;
20421;SDS011;10370;53.102;18.034;2023-06-22T15:35:13;3.92;;;2.70;;
20421;SDS011;10370;53.102;18.034;2023-06-22T15:40:38;5.00;;;2.67;;
20421;SDS011;10370;53.102;18.034;2023-06-22T15:46:01;10.32;;;3.10;;
20421;SDS011;10370;53.102;18.034;2023-06-22T15:51:24;4.15;;;2.70;;
20421;SDS011;10370;53.102;18.034;2023-06-22T15:56:47;3.50;;;2.78;;
20421;SDS011;10370;53.102;18.034;2023-06-22T16:02:10;6.95;;;2.95;;
20421;SDS011;10370;53.102;18.034;2023-06-22T16:07:33;8.68;;;2.85;;
20421;SDS011;10370;53.102;18.034;2023-06-22T16:12:56;3.58;;;2.75;;
20421;SDS011;10370;53.102;18.034;2023-06-22T16:18:19;3.97;;;2.70;;
20421;SDS011;10370;53.102;18.034;2023-06-22T16:23:41;5.03;;;2.60;;
20421;SDS011;10370;53.102;18.034;2023-06-22T16:29:04;6.25;;;2.90;;
20421;SDS011;10370;53.102;18.034;2023-06-22T16:34:27;5.20;;;3.05;;
20421;SDS011;10370;53.102;18.034;2023-06-22T16:39:50;4.43;;;2.80;;
20421;SDS011;10370;53.102;18.034;2023-06-22T16:45:16;8.85;;;2.88;;
20421;SDS011;10370;53.102;18.034;2023-06-22T16:50:38;4.28;;;2.92;;
20421;SDS011;10370;53.102;18.034;2023-06-22T16:56:01;3.53;;;2.90;;
20421;SDS011;10370;53.102;18.034;2023-06-22T17:01:24;6.90;;;3.53;;
20421;SDS011;10370;53.102;18.034;2023-06-22T17:06:48;7.97;;;3.13;;
20421;SDS011;10370;53.102;18.034;2023-06-22T17:12:23;3.83;;;2.60;;
20421;SDS011;10370;53.102;18.034;2023-06-22T17:17:51;7.30;;;2.97;;
20421;SDS011;10370;53.102;18.034;2023-06-22T17:23:16;16.95;;;3.35;;
20421;SDS011;10370;53.102;18.034;2023-06-22T17:28:51;5.50;;;2.97;;
20421;SDS011;10370;53.102;18.034;2023-06-22T17:34:24;4.32;;;3.13;;
20421;SDS011;10370;53.102;18.034;2023-06-22T17:39:53;5.57;;;3.13;;
20421;SDS011;10370;53.102;18.034;2023-06-22T17:45:20;4.25;;;2.83;;
20421;SDS011;10370;53.102;18.034;2023-06-22T17:50:44;4.85;;;2.75;;
20421;SDS011;10370;53.102;18.034;2023-06-22T17:56:06;4.63;;;2.90;;
20421;SDS011;10370;53.102;18.034;2023-06-22T18:01:29;8.27;;;3.25;;
20421;SDS011;10370;53.102;18.034;2023-06-22T18:06:59;9.30;;;3.22;;
20421;SDS011;10370;53.102;18.034;2023-06-22T18:12:23;5.57;;;3.20;;
20421;SDS011;10370;53.102;18.034;2023-06-22T18:17:46;10.32;;;3.25;;
20421;SDS011;10370;53.102;18.034;2023-06-22T18:23:10;10.48;;;3.30;;
20421;SDS011;10370;53.102;18.034;2023-06-22T18:28:34;16.38;;;6.93;;
20421;SDS011;10370;53.102;18.034;2023-06-22T18:34:00;28.98;;;13.52;;
20421;SDS011;10370;53.102;18.034;2023-06-22T18:39:26;24.95;;;8.65;;
20421;SDS011;10370;53.102;18.034;2023-06-22T18:44:52;11.87;;;4.60;;
20421;SDS011;10370;53.102;18.034;2023-06-22T18:50:16;11.60;;;3.95;;
20421;SDS011;10370;53.102;18.034;2023-06-22T18:56:14;10.35;;;4.57;;
20421;SDS011;10370;53.102;18.034;2023-06-22T19:01:37;21.08;;;4.78;;
20421;SDS011;10370;53.102;18.034;2023-06-22T19:06:59;30.67;;;5.20;;
20421;SDS011;10370;53.102;18.034;2023-06-22T19:12:23;22.45;;;5.00;;
20421;SDS011;10370;53.102;18.034;2023-06-22T19:17:47;34.72;;;7.07;;
20421;SDS011;10370;53.102;18.034;2023-06-22T19:29:14;27.50;;;9.02;;
20421;SDS011;10370;53.102;18.034;2023-06-22T19:34:45;29.15;;;7.75;;
20421;SDS011;10370;53.102;18.034;2023-06-22T19:40:10;21.90;;;9.40;;
20421;SDS011;10370;53.102;18.034;2023-06-22T19:45:38;22.23;;;8.77;;
20421;SDS011;10370;53.102;18.034;2023-06-22T19:51:06;16.50;;;8.73;;
20421;SDS011;10370;53.102;18.034;2023-06-22T19:56:29;17.17;;;9.15;;
20421;SDS011;10370;53.102;18.034;2023-06-22T20:01:52;19.23;;;9.73;;
20421;SDS011;10370;53.102;18.034;2023-06-22T20:07:14;16.58;;;9.23;;
20421;SDS011;10370;53.102;18.034;2023-06-22T20:12:37;21.20;;;11.90;;
20421;SDS011;10370;53.102;18.034;2023-06-22T20:18:03;22.17;;;13.45;;
20421;SDS011;10370;53.102;18.034;2023-06-22T20:23:30;20.10;;;12.00;;
20421;SDS011;10370;53.102;18.034;2023-06-22T20:28:53;18.15;;;10.73;;
20421;SDS011;10370;53.102;18.034;2023-06-22T20:34:20;22.33;;;12.93;;
20421;SDS011;10370;53.102;18.034;2023-06-22T20:39:43;26.60;;;10.70;;
20421;SDS011;10370;53.102;18.034;2023-06-22T20:45:09;26.92;;;11.13;;
20421;SDS011;10370;53.102;18.034;2023-06-22T20:50:32;30.40;;;11.90;;
20421;SDS011;10370;53.102;18.034;2023-06-22T20:55:55;29.38;;;12.18;;
20421;SDS011;10370;53.102;18.034;2023-06-22T21:01:18;26.27;;;10.25;;
20421;SDS011;10370;53.102;18.034;2023-06-22T21:06:44;27.60;;;10.48;;
20421;SDS011;10370;53.102;18.034;2023-06-22T21:12:08;22.42;;;10.73;;
20421;SDS011;10370;53.102;18.034;2023-06-22T21:17:31;35.45;;;11.20;;
20421;SDS011;10370;53.102;18.034;2023-06-22T21:22:54;25.35;;;11.25;;
20421;SDS011;10370;53.102;18.034;2023-06-22T21:28:17;22.48;;;11.60;;
20421;SDS011;10370;53.102;18.034;2023-06-22T21:33:40;22.17;;;11.52;;
20421;SDS011;10370;53.102;18.034;2023-06-22T21:39:03;27.67;;;12.18;;
20421;SDS011;10370;53.102;18.034;2023-06-22T21:44:25;19.75;;;10.63;;
20421;SDS011;10370;53.102;18.034;2023-06-22T21:49:48;18.00;;;10.15;;
20421;SDS011;10370;53.102;18.034;2023-06-22T21:55:11;24.40;;;11.93;;
20421;SDS011;10370;53.102;18.034;2023-06-22T22:00:34;19.40;;;11.38;;
20421;SDS011;10370;53.102;18.034;2023-06-22T22:05:56;16.75;;;10.77;;
20421;SDS011;10370;53.102;18.034;2023-06-22T22:11:21;20.90;;;12.38;;
20421;SDS011;10370;53.102;18.034;2023-06-22T22:16:45;19.48;;;12.30;;
20421;SDS011;10370;53.102;18.034;2023-06-22T22:22:08;17.80;;;10.82;;
20421;SDS011;10370;53.102;18.034;2023-06-22T22:27:31;21.58;;;12.10;;
20421;SDS011;10370;53.102;18.034;2023-06-22T22:32:54;19.33;;;11.93;;
20421;SDS011;10370;53.102;18.034;2023-06-22T22:38:16;16.38;;;11.82;;
20421;SDS011;10370;53.102;18.034;2023-06-22T22:43:39;17.75;;;11.38;;
20421;SDS011;10370;53.102;18.034;2023-06-22T22:49:02;18.13;;;11.60;;
20421;SDS011;10370;53.102;18.034;2023-06-22T22:54:25;14.70;;;10.43;;
20421;SDS011;10370;53.102;18.034;2023-06-22T22:59:48;19.80;;;11.00;;
20421;SDS011;10370;53.102;18.034;2023-06-22T23:05:11;12.05;;;9.57;;
20421;SDS011;10370;53.102;18.034;2023-06-22T23:10:34;12.93;;;9.05;;
20421;SDS011;10370;53.102;18.034;2023-06-22T23:15:57;11.80;;;8.77;;
20421;SDS011;10370;53.102;18.034;2023-06-22T23:21:20;14.93;;;9.07;;
20421;SDS011;10370;53.102;18.034;2023-06-22T23:26:43;15.98;;;10.30;;
20421;SDS011;10370;53.102;18.034;2023-06-22T23:32:09;20.48;;;11.70;;
20421;SDS011;10370;53.102;18.034;2023-06-22T23:37:32;19.33;;;11.48;;
20421;SDS011;10370;53.102;18.034;2023-06-22T23:42:55;24.25;;;11.77;;
20421;SDS011;10370;53.102;18.034;2023-06-22T23:48:18;18.10;;;11.38;;
20421;SDS011;10370;53.102;18.034;2023-06-22T23:53:41;20.77;;;10.75;;
20421;SDS011;10370;53.102;18.034;2023-06-22T23:59:04;17.98;;;10.43;;
